createdAt,value
2018-07-23T00:00:12.680Z,954.36
2018-07-23T00:01:12.678Z,954.38
2018-07-23T00:02:12.673Z,954.39
2018-07-23T00:03:12.671Z,954.38
2018-07-23T00:04:12.667Z,954.4
2018-07-23T00:05:12.664Z,954.39
2018-07-23T00:06:12.660Z,954.36
2018-07-23T00:07:12.655Z,954.38
2018-07-23T00:08:12.653Z,954.38
2018-07-23T00:09:12.650Z,954.39
2018-07-23T00:10:12.648Z,954.41
2018-07-23T00:11:12.641Z,954.35
2018-07-23T00:12:12.638Z,954.33
2018-07-23T00:13:12.636Z,954.35
2018-07-23T00:14:12.630Z,954.32
2018-07-23T00:15:12.628Z,954.33
2018-07-23T00:16:12.624Z,954.34
2018-07-23T00:17:12.620Z,954.35
2018-07-23T00:18:12.616Z,954.35
2018-07-23T00:19:12.612Z,954.35
2018-07-23T00:20:12.610Z,954.36
2018-07-23T00:21:12.605Z,954.36
2018-07-23T00:22:12.607Z,954.34
2018-07-23T00:23:12.599Z,954.38
2018-07-23T00:24:12.596Z,954.36
2018-07-23T00:25:12.590Z,954.39
2018-07-23T00:26:12.589Z,954.31
2018-07-23T00:27:12.583Z,954.34
2018-07-23T00:28:12.580Z,954.33
2018-07-23T00:29:12.575Z,954.29
2018-07-23T00:30:12.573Z,954.27
2018-07-23T00:31:12.571Z,954.3
2018-07-23T00:32:12.565Z,954.31
2018-07-23T00:33:12.561Z,954.31
2018-07-23T00:34:12.558Z,954.31
2018-07-23T00:35:12.555Z,954.32
2018-07-23T00:36:12.551Z,954.34
2018-07-23T00:37:12.547Z,954.34
2018-07-23T00:38:12.542Z,954.37
2018-07-23T00:39:12.540Z,954.37
2018-07-23T00:40:12.536Z,954.35
2018-07-23T00:41:12.532Z,954.39
2018-07-23T00:42:12.529Z,954.43
2018-07-23T00:43:12.524Z,954.34
2018-07-23T00:44:12.526Z,954.39
2018-07-23T00:45:12.516Z,954.38
2018-07-23T00:46:12.512Z,954.35
2018-07-23T00:47:12.508Z,954.35
2018-07-23T00:48:12.505Z,954.34
2018-07-23T00:49:12.502Z,954.36
2018-07-23T00:50:12.498Z,954.32
2018-07-23T00:51:12.495Z,954.32
2018-07-23T00:52:12.489Z,954.31
2018-07-23T00:53:12.486Z,954.34
2018-07-23T00:54:12.482Z,954.35
2018-07-23T00:55:12.479Z,954.38
2018-07-23T00:56:12.474Z,954.37
2018-07-23T00:57:12.471Z,954.33
2018-07-23T00:58:12.468Z,954.35
2018-07-23T00:59:12.464Z,954.35
2018-07-23T01:00:12.459Z,954.36
2018-07-23T01:01:12.456Z,954.37
2018-07-23T01:02:12.451Z,954.37
2018-07-23T01:03:12.448Z,954.41
2018-07-23T01:04:12.446Z,954.35
2018-07-23T01:05:12.466Z,954.4
2018-07-23T01:06:12.437Z,954.37
2018-07-23T01:07:12.433Z,954.39
2018-07-23T01:08:12.428Z,954.41
2018-07-23T01:09:12.425Z,954.38
2018-07-23T01:10:12.423Z,954.38
2018-07-23T01:11:12.421Z,954.37
2018-07-23T01:12:12.412Z,954.38
2018-07-23T01:13:12.409Z,954.37
2018-07-23T01:14:12.405Z,954.37
2018-07-23T01:15:12.402Z,954.35
2018-07-23T01:16:12.397Z,954.36
2018-07-23T01:17:12.392Z,954.37
2018-07-23T01:18:12.389Z,954.4
2018-07-23T01:19:12.387Z,954.36
2018-07-23T01:20:12.381Z,954.36
2018-07-23T01:21:12.381Z,954.4
2018-07-23T01:22:12.373Z,954.44
2018-07-23T01:23:12.370Z,954.39
2018-07-23T01:24:12.373Z,954.42
2018-07-23T01:25:12.361Z,954.42
2018-07-23T01:26:12.358Z,954.41
2018-07-23T01:27:12.354Z,954.4
2018-07-23T01:28:12.352Z,954.45
2018-07-23T01:29:12.346Z,954.43
2018-07-23T01:30:12.341Z,954.44
2018-07-23T01:31:12.336Z,954.42
2018-07-23T01:32:12.349Z,954.46
2018-07-23T01:33:12.329Z,954.41
2018-07-23T01:34:12.338Z,954.41
2018-07-23T01:35:12.340Z,954.4
2018-07-23T01:36:12.317Z,954.47
2018-07-23T01:37:12.314Z,954.45
2018-07-23T01:38:12.311Z,954.44
2018-07-23T01:39:12.304Z,954.41
2018-07-23T01:40:12.300Z,954.43
2018-07-23T01:41:12.297Z,954.44
2018-07-23T01:42:12.291Z,954.44
2018-07-23T01:43:12.288Z,954.44
2018-07-23T01:44:12.284Z,954.48
2018-07-23T01:45:12.279Z,954.46
2018-07-23T01:46:12.277Z,954.43
2018-07-23T01:47:12.272Z,954.42
2018-07-23T01:48:12.269Z,954.43
2018-07-23T01:49:12.264Z,954.45
2018-07-23T01:50:12.260Z,954.46
2018-07-23T01:51:12.256Z,954.45
2018-07-23T01:52:12.251Z,954.48
2018-07-23T01:53:12.247Z,954.46
2018-07-23T01:54:12.242Z,954.52
2018-07-23T01:55:12.239Z,954.47
2018-07-23T01:56:12.235Z,954.52
2018-07-23T01:57:12.231Z,954.49
2018-07-23T01:58:12.227Z,954.49
2018-07-23T01:59:12.222Z,954.53
2018-07-23T02:00:12.218Z,954.51
2018-07-23T02:01:12.215Z,954.51
2018-07-23T02:02:12.212Z,954.52
2018-07-23T02:03:12.207Z,954.49
2018-07-23T02:04:12.201Z,954.49
2018-07-23T02:05:12.199Z,954.53
2018-07-23T02:06:12.194Z,954.48
2018-07-23T02:07:12.189Z,954.54
2018-07-23T02:08:12.187Z,954.53
2018-07-23T02:09:12.181Z,954.52
2018-07-23T02:10:12.178Z,954.53
2018-07-23T02:11:12.173Z,954.47
2018-07-23T02:12:12.169Z,954.48
2018-07-23T02:13:12.166Z,954.48
2018-07-23T02:14:12.162Z,954.54
2018-07-23T02:15:12.156Z,954.48
2018-07-23T02:16:12.154Z,954.48
2018-07-23T02:17:12.150Z,954.47
2018-07-23T02:18:12.182Z,954.48
2018-07-23T02:19:12.141Z,954.5
2018-07-23T02:20:12.138Z,954.53
2018-07-23T02:21:12.133Z,954.53
2018-07-23T02:22:12.127Z,954.58
2018-07-23T02:23:12.123Z,954.52
2018-07-23T02:24:12.123Z,954.52
2018-07-23T02:25:12.117Z,954.51
2018-07-23T02:26:12.115Z,954.51
2018-07-23T02:27:12.107Z,954.53
2018-07-23T02:28:12.102Z,954.53
2018-07-23T02:29:12.103Z,954.54
2018-07-23T02:30:12.093Z,954.54
2018-07-23T02:31:12.090Z,954.55
2018-07-23T02:32:12.085Z,954.51
2018-07-23T02:33:12.081Z,954.54
2018-07-23T02:34:12.077Z,954.52
2018-07-23T02:35:12.074Z,954.56
2018-07-23T02:36:12.068Z,954.52
2018-07-23T02:37:12.065Z,954.53
2018-07-23T02:38:12.062Z,954.54
2018-07-23T02:39:12.058Z,954.56
2018-07-23T02:40:12.051Z,954.53
2018-07-23T02:41:12.047Z,954.55
2018-07-23T02:42:12.047Z,954.53
2018-07-23T02:43:12.039Z,954.56
2018-07-23T02:44:12.033Z,954.61
2018-07-23T02:45:12.029Z,954.55
2018-07-23T02:46:12.025Z,954.55
2018-07-23T02:47:12.021Z,954.58
2018-07-23T02:48:12.019Z,954.59
2018-07-23T02:49:12.011Z,954.57
2018-07-23T02:50:12.007Z,954.59
2018-07-23T02:51:12.005Z,954.6
2018-07-23T02:52:12.000Z,954.58
2018-07-23T02:53:11.992Z,954.6
2018-07-23T02:54:11.988Z,954.59
2018-07-23T02:55:11.982Z,954.58
2018-07-23T02:56:11.984Z,954.59
2018-07-23T02:57:11.975Z,954.55
2018-07-23T02:58:11.968Z,954.54
2018-07-23T02:59:11.963Z,954.54
2018-07-23T03:00:11.961Z,954.55
2018-07-23T03:01:11.955Z,954.59
2018-07-23T03:02:11.949Z,954.61
2018-07-23T03:03:11.944Z,954.62
2018-07-23T03:04:11.939Z,954.63
2018-07-23T03:05:11.943Z,954.68
2018-07-23T03:06:11.929Z,954.68
2018-07-23T03:07:11.925Z,954.67
2018-07-23T03:08:11.920Z,954.72
2018-07-23T03:09:11.914Z,954.7
2018-07-23T03:10:11.909Z,954.7
2018-07-23T03:11:11.906Z,954.68
2018-07-23T03:12:11.906Z,954.7
2018-07-23T03:13:11.900Z,954.69
2018-07-23T03:14:11.893Z,954.73
2018-07-23T03:15:11.936Z,954.71
2018-07-23T03:16:11.886Z,954.74
2018-07-23T03:17:11.874Z,954.73
2018-07-23T03:18:11.870Z,954.76
2018-07-23T03:19:11.865Z,954.74
2018-07-23T03:20:11.860Z,954.76
2018-07-23T03:21:11.857Z,954.7
2018-07-23T03:22:11.857Z,954.71
2018-07-23T03:23:11.854Z,954.76
2018-07-23T03:24:11.839Z,954.72
2018-07-23T03:25:11.836Z,954.71
2018-07-23T03:26:11.829Z,954.74
2018-07-23T03:27:11.826Z,954.74
2018-07-23T03:28:11.818Z,954.75
2018-07-23T03:29:11.815Z,954.73
2018-07-23T03:30:11.810Z,954.72
2018-07-23T03:31:11.805Z,954.71
2018-07-23T03:32:11.799Z,954.75
2018-07-23T03:33:11.794Z,954.77
2018-07-23T03:34:11.790Z,954.74
2018-07-23T03:35:11.784Z,954.73
2018-07-23T03:36:11.779Z,954.73
2018-07-23T03:37:11.775Z,954.77
2018-07-23T03:38:11.769Z,954.78
2018-07-23T03:39:11.764Z,954.8
2018-07-23T03:40:11.760Z,954.81
2018-07-23T03:41:11.755Z,954.83
2018-07-23T03:42:11.749Z,954.87
2018-07-23T03:43:11.745Z,954.82
2018-07-23T03:44:11.742Z,954.86
2018-07-23T03:45:11.737Z,954.86
2018-07-23T03:46:11.730Z,954.86
2018-07-23T03:47:11.726Z,954.84
2018-07-23T03:48:11.721Z,954.86
2018-07-23T03:49:11.717Z,954.87
2018-07-23T03:50:11.711Z,954.84
2018-07-23T03:51:11.707Z,954.86
2018-07-23T03:52:11.703Z,954.87
2018-07-23T03:53:11.698Z,954.85
2018-07-23T03:54:11.692Z,954.85
2018-07-23T03:55:11.689Z,954.86
2018-07-23T03:56:11.684Z,954.82
2018-07-23T03:57:11.678Z,954.84
2018-07-23T03:58:11.674Z,954.84
2018-07-23T03:59:11.673Z,954.91
2018-07-23T04:00:11.666Z,954.85
2018-07-23T04:01:11.659Z,954.87
2018-07-23T04:02:11.657Z,954.91
2018-07-23T04:03:11.651Z,954.92
2018-07-23T04:04:11.647Z,954.88
2018-07-23T04:05:11.640Z,954.91
2018-07-23T04:06:11.636Z,954.89
2018-07-23T04:07:11.631Z,954.91
2018-07-23T04:08:11.626Z,954.9
2018-07-23T04:09:11.621Z,954.95
2018-07-23T04:10:11.619Z,954.94
2018-07-23T04:11:11.615Z,954.95
2018-07-23T04:12:11.610Z,954.97
2018-07-23T04:13:11.604Z,954.97
2018-07-23T04:14:11.600Z,955.01
2018-07-23T04:15:11.595Z,954.97
2018-07-23T04:16:11.592Z,954.97
2018-07-23T04:17:11.588Z,954.98
2018-07-23T04:18:11.581Z,954.99
2018-07-23T04:19:11.577Z,954.99
2018-07-23T04:20:11.575Z,954.98
2018-07-23T04:21:11.569Z,954.97
2018-07-23T04:22:11.565Z,954.96
2018-07-23T04:23:11.560Z,954.96
2018-07-23T04:24:11.556Z,954.98
2018-07-23T04:25:11.552Z,954.96
2018-07-23T04:26:11.545Z,955.01
2018-07-23T04:27:11.552Z,955.02
2018-07-23T04:28:11.537Z,954.97
2018-07-23T04:29:11.534Z,955
2018-07-23T04:30:11.529Z,955.02
2018-07-23T04:31:11.523Z,955.02
2018-07-23T04:32:11.522Z,955.03
2018-07-23T04:33:11.515Z,955.03
2018-07-23T04:34:11.511Z,955.04
2018-07-23T04:35:11.506Z,955.03
2018-07-23T04:36:11.502Z,955.06
2018-07-23T04:37:11.497Z,955.05
2018-07-23T04:38:11.495Z,955.07
2018-07-23T04:39:11.490Z,955.09
2018-07-23T04:40:11.487Z,955.1
2018-07-23T04:41:11.480Z,955.09
2018-07-23T04:42:11.477Z,955.09
2018-07-23T04:43:11.472Z,955.09
2018-07-23T04:44:11.469Z,955.12
2018-07-23T04:45:11.465Z,955.12
2018-07-23T04:46:11.460Z,955.12
2018-07-23T04:47:11.456Z,955.15
2018-07-23T04:48:11.455Z,955.18
2018-07-23T04:49:11.461Z,955.16
2018-07-23T04:50:11.446Z,955.18
2018-07-23T04:51:11.442Z,955.17
2018-07-23T04:52:11.437Z,955.14
2018-07-23T04:53:11.433Z,955.18
2018-07-23T04:54:11.430Z,955.19
2018-07-23T04:55:11.424Z,955.18
2018-07-23T04:56:11.421Z,955.18
2018-07-23T04:57:11.420Z,955.18
2018-07-23T04:58:11.415Z,955.24
2018-07-23T04:59:11.412Z,955.22
2018-07-23T05:00:11.409Z,955.22
2018-07-23T05:01:11.405Z,955.23
2018-07-23T05:02:11.401Z,955.25
2018-07-23T05:03:11.399Z,955.26
2018-07-23T05:04:11.395Z,955.26
2018-07-23T05:05:11.392Z,955.34
2018-07-23T05:06:11.390Z,955.3
2018-07-23T05:07:11.386Z,955.35
2018-07-23T05:08:11.383Z,955.34
2018-07-23T05:09:11.378Z,955.35
2018-07-23T05:10:11.374Z,955.32
2018-07-23T05:11:11.372Z,955.37
2018-07-23T05:12:11.368Z,955.39
2018-07-23T05:13:11.366Z,955.36
2018-07-23T05:14:11.361Z,955.39
2018-07-23T05:15:11.358Z,955.38
2018-07-23T05:16:11.356Z,955.4
2018-07-23T05:17:11.353Z,955.38
2018-07-23T05:18:11.349Z,955.42
2018-07-23T05:19:11.347Z,955.4
2018-07-23T05:20:11.344Z,955.43
2018-07-23T05:21:11.339Z,955.44
2018-07-23T05:22:11.336Z,955.41
2018-07-23T05:23:11.335Z,955.42
2018-07-23T05:24:11.332Z,955.42
2018-07-23T05:25:11.327Z,955.47
2018-07-23T05:26:11.342Z,955.42
2018-07-23T05:27:11.323Z,955.4
2018-07-23T05:28:11.319Z,955.41
2018-07-23T05:29:11.317Z,955.42
2018-07-23T05:30:11.317Z,955.4
2018-07-23T05:31:11.312Z,955.45
2018-07-23T05:32:11.308Z,955.43
2018-07-23T05:33:11.304Z,955.46
2018-07-23T05:34:11.302Z,955.46
2018-07-23T05:35:11.299Z,955.43
2018-07-23T05:36:11.295Z,955.49
2018-07-23T05:37:11.296Z,955.43
2018-07-23T05:38:11.301Z,955.41
2018-07-23T05:39:11.287Z,955.43
2018-07-23T05:40:11.285Z,955.43
2018-07-23T05:41:11.283Z,955.43
2018-07-23T05:42:11.281Z,955.48
2018-07-23T05:43:11.276Z,955.44
2018-07-23T05:44:11.274Z,955.49
2018-07-23T05:45:11.271Z,955.51
2018-07-23T05:46:11.269Z,955.49
2018-07-23T05:47:11.268Z,955.45
2018-07-23T05:48:11.264Z,955.46
2018-07-23T05:49:11.263Z,955.45
2018-07-23T05:50:11.260Z,955.48
2018-07-23T05:51:11.257Z,955.47
2018-07-23T05:52:11.256Z,955.47
2018-07-23T05:53:11.253Z,955.45
2018-07-23T05:54:11.251Z,955.49
2018-07-23T05:55:11.249Z,955.51
2018-07-23T05:56:11.246Z,955.47
2018-07-23T05:57:11.244Z,955.49
2018-07-23T05:58:11.240Z,955.5
2018-07-23T05:59:11.240Z,955.48
2018-07-23T06:00:11.237Z,955.49
2018-07-23T06:01:11.234Z,955.49
2018-07-23T06:02:11.232Z,955.48
2018-07-23T06:03:11.230Z,955.52
2018-07-23T06:04:11.232Z,955.47
2018-07-23T06:05:11.226Z,955.5
2018-07-23T06:06:11.226Z,955.45
2018-07-23T06:07:11.222Z,955.46
2018-07-23T06:08:11.218Z,955.48
2018-07-23T06:09:11.216Z,955.47
2018-07-23T06:10:11.216Z,955.48
2018-07-23T06:11:11.214Z,955.49
2018-07-23T06:12:11.210Z,955.53
2018-07-23T06:13:11.245Z,955.52
2018-07-23T06:14:11.207Z,955.55
2018-07-23T06:15:11.205Z,955.56
2018-07-23T06:16:11.202Z,955.56
2018-07-23T06:17:11.201Z,955.57
2018-07-23T06:18:11.200Z,955.61
2018-07-23T06:19:11.207Z,955.59
2018-07-23T06:20:11.194Z,955.62
2018-07-23T06:21:11.192Z,955.64
2018-07-23T06:22:11.191Z,955.66
2018-07-23T06:23:11.190Z,955.67
2018-07-23T06:24:11.191Z,955.64
2018-07-23T06:25:11.185Z,955.66
2018-07-23T06:26:11.185Z,955.65
2018-07-23T06:27:11.186Z,955.69
2018-07-23T06:28:11.180Z,955.68
2018-07-23T06:29:11.179Z,955.64
2018-07-23T06:30:11.253Z,955.7
2018-07-23T06:31:11.177Z,955.63
2018-07-23T06:32:11.175Z,955.69
2018-07-23T06:33:11.173Z,955.67
2018-07-23T06:34:11.171Z,955.66
2018-07-23T06:35:11.168Z,955.64
2018-07-23T06:36:11.168Z,955.66
2018-07-23T06:37:11.168Z,955.67
2018-07-23T06:38:11.164Z,955.7
2018-07-23T06:39:11.163Z,955.68
2018-07-23T06:40:11.162Z,955.7
2018-07-23T06:41:11.161Z,955.72
2018-07-23T06:42:11.160Z,955.73
2018-07-23T06:43:11.209Z,955.73
2018-07-23T06:44:11.157Z,955.73
2018-07-23T06:45:11.158Z,955.74
2018-07-23T06:46:11.154Z,955.73
2018-07-23T06:47:11.154Z,955.72
2018-07-23T06:48:11.153Z,955.71
2018-07-23T06:49:11.151Z,955.75
2018-07-23T06:50:11.150Z,955.78
2018-07-23T06:51:11.150Z,955.76
2018-07-23T06:52:11.150Z,955.74
2018-07-23T06:53:11.151Z,955.74
2018-07-23T06:54:11.245Z,955.68
2018-07-23T06:55:11.150Z,955.7
2018-07-23T06:56:11.146Z,955.71
2018-07-23T06:57:11.147Z,955.7
2018-07-23T06:58:11.146Z,955.71
2018-07-23T06:59:11.147Z,955.7
2018-07-23T07:00:11.146Z,955.68
2018-07-23T07:01:11.148Z,955.71
2018-07-23T07:02:11.150Z,955.73
2018-07-23T07:03:11.213Z,955.66
2018-07-23T07:04:11.150Z,955.67
2018-07-23T07:05:11.156Z,955.67
2018-07-23T07:06:11.152Z,955.7
2018-07-23T07:07:11.154Z,955.7
2018-07-23T07:08:11.155Z,955.68
2018-07-23T07:09:11.158Z,955.69
2018-07-23T07:10:11.161Z,955.73
2018-07-23T07:11:11.161Z,955.73
2018-07-23T07:12:11.165Z,955.73
2018-07-23T07:13:11.168Z,955.69
2018-07-23T07:14:11.169Z,955.74
2018-07-23T07:15:11.171Z,955.71
2018-07-23T07:16:11.174Z,955.72
2018-07-23T07:17:11.179Z,955.75
2018-07-23T07:18:11.181Z,955.71
2018-07-23T07:19:11.185Z,955.73
2018-07-23T07:20:11.190Z,955.73
2018-07-23T07:21:11.194Z,955.73
2018-07-23T07:22:11.198Z,955.71
2018-07-23T07:23:11.201Z,955.71
2018-07-23T07:24:11.208Z,955.76
2018-07-23T07:25:11.216Z,955.78
2018-07-23T07:26:11.218Z,955.72
2018-07-23T07:27:11.230Z,955.73
2018-07-23T07:28:11.223Z,955.75
2018-07-23T07:29:11.228Z,955.69
2018-07-23T07:30:11.233Z,955.68
2018-07-23T07:31:11.239Z,955.7
2018-07-23T07:32:11.242Z,955.67
2018-07-23T07:33:11.251Z,955.77
2018-07-23T07:34:11.252Z,955.75
2018-07-23T07:35:11.258Z,955.74
2018-07-23T07:36:11.269Z,955.76
2018-07-23T07:37:11.266Z,955.74
2018-07-23T07:38:11.296Z,955.82
2018-07-23T07:39:11.279Z,955.8
2018-07-23T07:40:11.282Z,955.81
2018-07-23T07:41:11.288Z,955.82
2018-07-23T07:42:11.294Z,955.86
2018-07-23T07:43:11.300Z,955.83
2018-07-23T07:44:11.307Z,955.78
2018-07-23T07:45:11.309Z,955.83
2018-07-23T07:46:11.316Z,955.83
2018-07-23T07:47:11.322Z,955.85
2018-07-23T07:48:11.329Z,955.8
2018-07-23T07:49:11.333Z,955.87
2018-07-23T07:50:11.340Z,955.89
2018-07-23T07:51:11.344Z,955.91
2018-07-23T07:52:11.350Z,955.92
2018-07-23T07:53:11.358Z,956.02
2018-07-23T07:54:11.363Z,956
2018-07-23T07:55:11.369Z,955.78
2018-07-23T07:56:11.382Z,955.71
2018-07-23T07:57:11.383Z,955.67
2018-07-23T07:58:11.388Z,955.7
2018-07-23T07:59:11.420Z,955.69
2018-07-23T08:00:11.400Z,955.73
2018-07-23T08:01:11.407Z,955.72
2018-07-23T08:02:11.411Z,955.7
2018-07-23T08:03:11.419Z,955.72
2018-07-23T08:04:11.425Z,955.75
2018-07-23T08:05:11.430Z,955.74
2018-07-23T08:06:11.434Z,955.8
2018-07-23T08:07:11.477Z,955.76
2018-07-23T08:08:11.445Z,955.8
2018-07-23T08:09:11.453Z,955.75
2018-07-23T08:10:11.457Z,955.75
2018-07-23T08:11:11.461Z,955.77
2018-07-23T08:12:11.467Z,955.77
2018-07-23T08:13:11.471Z,955.74
2018-07-23T08:14:11.475Z,955.76
2018-07-23T08:15:11.481Z,955.76
2018-07-23T08:16:11.486Z,955.74
2018-07-23T08:17:11.489Z,955.72
2018-07-23T08:18:11.494Z,955.74
2018-07-23T08:19:11.498Z,955.73
2018-07-23T08:20:11.502Z,955.78
2018-07-23T08:21:11.505Z,955.75
2018-07-23T08:22:11.510Z,955.72
2018-07-23T08:23:11.514Z,955.74
2018-07-23T08:24:11.517Z,955.74
2018-07-23T08:25:11.619Z,955.73
2018-07-23T08:26:11.526Z,955.78
2018-07-23T08:27:11.530Z,955.78
2018-07-23T08:28:11.533Z,955.81
2018-07-23T08:29:11.537Z,955.83
2018-07-23T08:30:11.540Z,955.83
2018-07-23T08:31:11.543Z,955.79
2018-07-23T08:32:11.644Z,955.82
2018-07-23T08:33:11.553Z,955.85
2018-07-23T08:34:11.554Z,955.87
2018-07-23T08:35:11.558Z,955.85
2018-07-23T08:36:11.561Z,955.88
2018-07-23T08:37:11.620Z,955.84
2018-07-23T08:38:11.568Z,955.86
2018-07-23T08:39:11.572Z,955.81
2018-07-23T08:40:11.576Z,955.86
2018-07-23T08:41:11.580Z,955.85
2018-07-23T08:42:11.592Z,955.88
2018-07-23T08:43:11.640Z,955.9
2018-07-23T08:44:11.590Z,955.85
2018-07-23T08:45:11.593Z,955.84
2018-07-23T08:46:11.596Z,955.83
2018-07-23T08:47:11.599Z,955.82
2018-07-23T08:48:11.607Z,955.86
2018-07-23T08:49:11.604Z,955.89
2018-07-23T08:50:11.608Z,955.88
2018-07-23T08:51:11.660Z,955.9
2018-07-23T08:52:11.616Z,955.88
2018-07-23T08:53:11.618Z,955.91
2018-07-23T08:54:11.621Z,955.86
2018-07-23T08:55:11.626Z,955.88
2018-07-23T08:56:11.686Z,955.94
2018-07-23T08:57:11.631Z,955.9
2018-07-23T08:58:11.638Z,955.86
2018-07-23T08:59:11.638Z,955.93
2018-07-23T09:00:11.641Z,955.95
2018-07-23T09:01:11.644Z,955.94
2018-07-23T09:02:11.648Z,955.9
2018-07-23T09:03:11.651Z,955.86
2018-07-23T09:04:11.654Z,955.94
2018-07-23T09:05:11.661Z,955.88
2018-07-23T09:06:11.665Z,955.89
2018-07-23T09:07:11.660Z,955.9
2018-07-23T09:08:11.664Z,955.93
2018-07-23T09:09:11.668Z,955.92
2018-07-23T09:10:11.673Z,955.88
2018-07-23T09:11:11.675Z,955.93
2018-07-23T09:12:11.674Z,955.88
2018-07-23T09:13:11.677Z,955.88
2018-07-23T09:14:11.680Z,955.87
2018-07-23T09:15:11.682Z,955.93
2018-07-23T09:16:11.684Z,955.93
2018-07-23T09:17:11.730Z,955.89
2018-07-23T09:18:11.689Z,955.91
2018-07-23T09:19:11.691Z,955.91
2018-07-23T09:20:11.696Z,955.91
2018-07-23T09:21:11.699Z,955.94
2018-07-23T09:22:11.717Z,955.97
2018-07-23T09:23:11.703Z,955.9
2018-07-23T09:24:11.704Z,955.95
2018-07-23T09:25:11.709Z,955.94
2018-07-23T09:26:11.709Z,955.91
2018-07-23T09:27:11.712Z,955.92
2018-07-23T09:28:11.716Z,955.97
2018-07-23T09:29:11.717Z,955.92
2018-07-23T09:30:11.756Z,955.94
2018-07-23T09:31:11.724Z,955.93
2018-07-23T09:32:11.725Z,955.9
2018-07-23T09:33:11.727Z,955.92
2018-07-23T09:34:11.731Z,955.95
2018-07-23T09:35:11.733Z,955.9
2018-07-23T09:36:11.736Z,955.91
2018-07-23T09:37:11.792Z,955.86
2018-07-23T09:38:11.742Z,955.88
2018-07-23T09:39:11.746Z,955.85
2018-07-23T09:40:11.769Z,955.88
2018-07-23T09:41:11.748Z,955.89
2018-07-23T09:42:11.750Z,955.88
2018-07-23T09:43:11.755Z,955.89
2018-07-23T09:44:11.756Z,955.94
2018-07-23T09:45:11.760Z,955.92
2018-07-23T09:46:11.760Z,955.9
2018-07-23T09:47:11.768Z,955.88
2018-07-23T09:48:11.767Z,955.85
2018-07-23T09:49:11.768Z,955.88
2018-07-23T09:50:11.772Z,955.85
2018-07-23T09:51:11.773Z,955.77
2018-07-23T09:52:11.776Z,955.79
2018-07-23T09:53:11.780Z,955.75
2018-07-23T09:54:11.785Z,955.76
2018-07-23T09:55:11.784Z,955.8
2018-07-23T09:56:11.788Z,955.81
2018-07-23T09:57:11.792Z,955.82
2018-07-23T09:58:11.793Z,955.78
2018-07-23T09:59:11.796Z,955.8
2018-07-23T10:00:11.802Z,955.79
2018-07-23T10:01:11.804Z,955.77
2018-07-23T10:02:11.805Z,955.74
2018-07-23T10:03:11.877Z,955.77
2018-07-23T10:04:11.811Z,955.78
2018-07-23T10:05:11.815Z,955.77
2018-07-23T10:06:11.820Z,955.75
2018-07-23T10:07:11.821Z,955.75
2018-07-23T10:08:11.827Z,955.77
2018-07-23T10:09:11.826Z,955.79
2018-07-23T10:10:11.829Z,955.75
2018-07-23T10:11:11.832Z,955.76
2018-07-23T10:12:11.836Z,955.74
2018-07-23T10:13:11.839Z,955.75
2018-07-23T10:14:11.843Z,955.78
2018-07-23T10:15:11.846Z,955.79
2018-07-23T10:16:11.850Z,955.76
2018-07-23T10:17:11.853Z,955.77
2018-07-23T10:18:11.857Z,955.79
2018-07-23T10:19:11.862Z,955.78
2018-07-23T10:20:11.864Z,955.76
2018-07-23T10:21:11.873Z,955.73
2018-07-23T10:22:11.882Z,955.73
2018-07-23T10:23:11.875Z,955.78
2018-07-23T10:24:11.877Z,955.76
2018-07-23T10:25:11.883Z,955.72
2018-07-23T10:26:11.885Z,955.73
2018-07-23T10:27:11.888Z,955.71
2018-07-23T10:28:11.892Z,955.71
2018-07-23T10:29:11.895Z,955.73
2018-07-23T10:30:11.900Z,955.74
2018-07-23T10:31:11.902Z,955.71
2018-07-23T10:32:11.908Z,955.71
2018-07-23T10:33:11.910Z,955.72
2018-07-23T10:34:11.912Z,955.74
2018-07-23T10:35:11.947Z,955.66
2018-07-23T10:36:11.919Z,955.66
2018-07-23T10:37:11.923Z,955.7
2018-07-23T10:38:11.927Z,955.68
2018-07-23T10:39:11.930Z,955.66
2018-07-23T10:40:11.933Z,955.68
2018-07-23T10:41:11.996Z,955.7
2018-07-23T10:42:11.941Z,955.65
2018-07-23T10:43:11.944Z,955.67
2018-07-23T10:44:11.946Z,955.71
2018-07-23T10:45:11.951Z,955.71
2018-07-23T10:46:11.954Z,955.74
2018-07-23T10:47:11.958Z,955.69
2018-07-23T10:48:11.961Z,955.71
2018-07-23T10:49:11.966Z,955.74
2018-07-23T10:50:11.967Z,955.67
2018-07-23T10:51:11.972Z,955.68
2018-07-23T10:52:11.976Z,955.68
2018-07-23T10:53:11.978Z,955.69
2018-07-23T10:54:11.980Z,955.65
2018-07-23T10:55:11.987Z,955.6
2018-07-23T10:56:11.988Z,955.6
2018-07-23T10:57:12.040Z,955.6
2018-07-23T10:58:11.992Z,955.62
2018-07-23T10:59:11.997Z,955.67
2018-07-23T11:00:12.000Z,955.61
2018-07-23T11:01:12.002Z,955.62
2018-07-23T11:02:12.005Z,955.6
2018-07-23T11:03:12.008Z,955.54
2018-07-23T11:04:12.034Z,955.56
2018-07-23T11:05:12.015Z,955.56
2018-07-23T11:06:12.019Z,955.57
2018-07-23T11:07:12.023Z,955.57
2018-07-23T11:08:12.026Z,955.62
2018-07-23T11:09:12.033Z,955.59
2018-07-23T11:10:12.033Z,955.65
2018-07-23T11:11:12.039Z,955.62
2018-07-23T11:12:12.040Z,955.58
2018-07-23T11:13:12.044Z,955.62
2018-07-23T11:14:12.048Z,955.58
2018-07-23T11:15:12.049Z,955.61
2018-07-23T11:16:12.054Z,955.59
2018-07-23T11:17:12.058Z,955.63
2018-07-23T11:18:12.063Z,955.63
2018-07-23T11:19:12.115Z,955.6
2018-07-23T11:20:12.069Z,955.65
2018-07-23T11:21:12.072Z,955.62
2018-07-23T11:22:12.076Z,955.6
2018-07-23T11:23:12.080Z,955.59
2018-07-23T11:24:12.083Z,955.52
2018-07-23T11:25:38.502Z,955.56
2018-07-23T11:26:12.124Z,955.57
2018-07-23T11:27:12.096Z,955.58
2018-07-23T11:28:12.099Z,955.57
2018-07-23T11:29:12.104Z,955.6
2018-07-23T11:30:12.107Z,955.58
2018-07-23T11:31:12.111Z,955.57
2018-07-23T11:32:12.117Z,955.5
2018-07-23T11:33:12.120Z,955.55
2018-07-23T11:34:12.124Z,955.52
2018-07-23T11:35:12.131Z,955.52
2018-07-23T11:36:12.132Z,955.46
2018-07-23T11:37:12.135Z,955.51
2018-07-23T11:38:12.139Z,955.5
2018-07-23T11:39:12.145Z,955.5
2018-07-23T11:40:12.150Z,955.51
2018-07-23T11:41:12.153Z,955.48
2018-07-23T11:42:12.156Z,955.58
2018-07-23T11:43:12.166Z,955.53
2018-07-23T11:44:12.167Z,955.57
2018-07-23T11:45:12.195Z,955.56
2018-07-23T11:46:24.446Z,955.53
2018-07-23T11:47:12.219Z,955.54
2018-07-23T11:48:12.183Z,955.53
2018-07-23T11:49:12.184Z,955.51
2018-07-23T11:50:12.188Z,955.53
2018-07-23T11:51:12.193Z,955.5
2018-07-23T11:52:14.361Z,955.47
2018-07-23T11:53:12.198Z,955.47
2018-07-23T11:54:12.203Z,955.47
2018-07-23T11:55:12.205Z,955.44
2018-07-23T11:56:12.209Z,955.43
2018-07-23T11:57:12.213Z,955.39
2018-07-23T11:58:12.215Z,955.36
2018-07-23T11:59:12.221Z,955.38
2018-07-23T12:00:12.224Z,955.36
2018-07-23T12:01:12.228Z,955.39
2018-07-23T12:02:12.232Z,955.42
2018-07-23T12:03:12.233Z,955.43
2018-07-23T12:04:12.247Z,955.38
2018-07-23T12:05:12.243Z,955.44
2018-07-23T12:06:12.247Z,955.41
2018-07-23T12:07:12.250Z,955.4
2018-07-23T12:08:12.254Z,955.42
2018-07-23T12:09:12.256Z,955.44
2018-07-23T12:10:12.259Z,955.46
2018-07-23T12:11:12.264Z,955.42
2018-07-23T12:12:12.268Z,955.4
2018-07-23T12:13:12.271Z,955.4
2018-07-23T12:14:12.273Z,955.41
2018-07-23T12:15:12.278Z,955.43
2018-07-23T12:16:12.284Z,955.41
2018-07-23T12:17:12.313Z,955.41
2018-07-23T12:18:12.286Z,955.4
2018-07-23T12:19:12.290Z,955.36
2018-07-23T12:20:12.292Z,955.34
2018-07-23T12:21:12.294Z,955.36
2018-07-23T12:22:12.298Z,955.3
2018-07-23T12:23:12.303Z,955.33
2018-07-23T12:24:12.308Z,955.33
2018-07-23T12:25:12.309Z,955.28
2018-07-23T12:26:12.312Z,955.28
2018-07-23T12:27:12.315Z,955.32
2018-07-23T12:28:12.317Z,955.26
2018-07-23T12:29:12.321Z,955.28
2018-07-23T12:30:12.367Z,955.3